Time;durP1;ratioP1;P1;durP2;ratioP2;P2;SDS_P1;SDS_P2;PMS_P1;PMS_P2;Temp;Humidity;BMP_temperature;BMP_pressure;BME280_temperature;BME280_humidity;BME280_pressure;Samples;Min_cycle;Max_cycle;Signal;HPM_P1;HPM_P2
2022/01/03 00:00:32;;;;;;;37.78;5.25;;;11.20;99.90;;;;;;5106445;28;20404;-75
2022/01/03 00:03:01;;;;;;;36.75;5.03;;;11.20;99.90;;;;;;5105232;28;20408;-75
2022/01/03 00:05:27;;;;;;;40.83;5.20;;;11.20;99.90;;;;;;5117397;28;20889;-75
2022/01/03 00:07:53;;;;;;;35.17;5.50;;;11.20;99.90;;;;;;5106281;27;20438;-75
2022/01/03 00:10:19;;;;;;;40.35;5.20;;;11.20;99.90;;;;;;5100637;28;20394;-74
2022/01/03 00:12:47;;;;;;;34.05;4.90;;;11.20;99.90;;;;;;5106458;28;20415;-74
2022/01/03 00:15:14;;;;;;;36.00;5.15;;;11.20;99.90;;;;;;5115523;28;21119;-74
2022/01/03 00:17:42;;;;;;;37.23;5.03;;;11.20;99.90;;;;;;5107278;28;20496;-75
2022/01/03 00:20:14;;;;;;;35.72;5.10;;;11.20;99.90;;;;;;5103607;28;20478;-74
2022/01/03 00:23:04;;;;;;;38.60;5.30;;;11.20;99.90;;;;;;5104886;28;20408;-75
2022/01/03 00:25:30;;;;;;;38.78;5.10;;;11.20;99.90;;;;;;5109950;28;20441;-74
2022/01/03 00:28:18;;;;;;;28.20;4.22;;;11.20;99.90;;;;;;5113130;27;20412;-73
2022/01/03 00:30:44;;;;;;;35.47;4.95;;;11.20;99.90;;;;;;5145061;27;20469;-74
2022/01/03 00:33:11;;;;;;;42.43;5.50;;;11.20;99.90;;;;;;5110009;28;20396;-74
2022/01/03 00:35:39;;;;;;;35.03;4.55;;;11.10;99.90;;;;;;5093501;28;20974;-74
2022/01/03 00:38:08;;;;;;;41.90;5.80;;;11.20;99.90;;;;;;5109370;28;20400;-74
2022/01/03 00:40:35;;;;;;;39.17;5.55;;;11.20;99.90;;;;;;5120113;27;20908;-75
2022/01/03 00:43:02;;;;;;;35.47;5.03;;;11.20;99.90;;;;;;5119041;27;20490;-75
2022/01/03 00:45:28;;;;;;;35.47;5.10;;;11.10;99.90;;;;;;5111497;27;20432;-76
2022/01/03 00:47:55;;;;;;;40.05;5.47;;;11.20;99.90;;;;;;5110950;27;20435;-76
2022/01/03 00:50:22;;;;;;;42.42;5.93;;;11.10;99.90;;;;;;5119622;27;20443;-74
2022/01/03 00:52:49;;;;;;;35.78;5.30;;;11.20;99.90;;;;;;5102083;27;20410;-77
2022/01/03 00:55:17;;;;;;;43.50;5.37;;;11.10;99.90;;;;;;5113021;27;20427;-75
2022/01/03 00:57:57;;;;;;;46.37;5.10;;;11.10;99.90;;;;;;5113336;27;20408;-76
2022/01/03 01:00:22;;;;;;;42.47;5.63;;;11.10;99.90;;;;;;5113646;27;20400;-75
2022/01/03 01:03:12;;;;;;;40.75;5.47;;;11.20;99.90;;;;;;5114224;27;20515;-75
2022/01/03 01:05:50;;;;;;;41.65;5.40;;;11.10;99.90;;;;;;5115317;27;20400;-74
2022/01/03 01:08:22;;;;;;;40.03;5.60;;;11.20;99.90;;;;;;5117856;27;20414;-75
2022/01/03 01:10:51;;;;;;;44.08;5.65;;;11.20;99.90;;;;;;5120996;27;20390;-76
2022/01/03 01:13:19;;;;;;;37.03;5.30;;;11.10;99.90;;;;;;5110887;28;20899;-75
2022/01/03 01:15:46;;;;;;;37.47;5.50;;;11.20;99.90;;;;;;5116643;27;20400;-76
2022/01/03 01:18:14;;;;;;;41.38;5.88;;;11.20;99.90;;;;;;5117951;27;20420;-75
2022/01/03 01:20:40;;;;;;;41.17;5.72;;;11.20;99.90;;;;;;5120702;27;20410;-74
2022/01/03 01:23:09;;;;;;;46.20;5.40;;;11.20;99.90;;;;;;5109452;27;20412;-75
2022/01/03 01:28:09;;;;;;;40.28;5.75;;;11.20;99.90;;;;;;5119678;27;20407;-75
2022/01/03 01:30:36;;;;;;;39.45;5.07;;;11.20;99.90;;;;;;5117131;27;20475;-75
2022/01/03 01:33:04;;;;;;;39.75;5.22;;;11.20;99.90;;;;;;5100089;27;20418;-76
2022/01/03 01:35:34;;;;;;;40.87;5.53;;;11.20;99.90;;;;;;5118101;27;20752;-75
2022/01/03 01:38:01;;;;;;;39.40;5.05;;;11.20;99.90;;;;;;5101902;27;20495;-74
2022/01/03 01:40:28;;;;;;;37.08;5.25;;;11.20;99.90;;;;;;5102082;27;21673;-75
2022/01/03 01:42:56;;;;;;;40.95;5.90;;;11.20;99.90;;;;;;5115254;27;20428;-75
2022/01/03 01:45:26;;;;;;;35.08;5.63;;;11.20;99.90;;;;;;5110908;27;20408;-75
2022/01/03 01:47:58;;;;;;;43.35;6.22;;;11.20;99.90;;;;;;5120315;27;20401;-75
2022/01/03 01:50:28;;;;;;;46.08;5.80;;;11.20;99.90;;;;;;5115906;27;20404;-76
2022/01/03 01:52:56;;;;;;;41.07;5.70;;;11.20;99.90;;;;;;5114347;27;20455;-75
2022/01/03 01:55:22;;;;;;;44.53;5.97;;;11.10;99.90;;;;;;5122763;27;20395;-75
2022/01/03 01:58:05;;;;;;;37.72;5.30;;;11.10;99.90;;;;;;5092840;28;20935;-76
2022/01/03 02:00:44;;;;;;;41.80;5.75;;;11.10;99.90;;;;;;5113910;27;20400;-76
2022/01/03 02:03:36;;;;;;;38.15;6.30;;;11.20;99.90;;;;;;5119250;27;20418;-76
2022/01/03 02:06:21;;;;;;;45.78;6.22;;;11.10;99.90;;;;;;5112986;27;20920;-76
2022/01/03 02:09:04;;;;;;;48.95;5.50;;;11.10;99.90;;;;;;5115262;27;20408;-77
2022/01/03 02:11:54;;;;;;;45.92;6.05;;;11.10;99.90;;;;;;5114858;27;20447;-76
2022/01/03 02:14:24;;;;;;;41.35;5.25;;;11.10;99.90;;;;;;5118004;27;20408;-75
2022/01/03 02:16:53;;;;;;;44.17;6.20;;;11.10;99.90;;;;;;5136497;27;20406;-75
2022/01/03 02:19:20;;;;;;;40.17;5.50;;;11.10;99.90;;;;;;5095141;27;20474;-78
2022/01/03 02:21:47;;;;;;;42.50;5.75;;;11.10;99.90;;;;;;5117250;27;20406;-76
2022/01/03 02:24:17;;;;;;;47.00;6.28;;;11.10;99.90;;;;;;5097094;27;20413;-76
2022/01/03 02:26:45;;;;;;;51.65;6.28;;;11.10;99.90;;;;;;5097460;28;20408;-76
2022/01/03 02:29:11;;;;;;;42.07;6.07;;;11.10;99.90;;;;;;5144844;27;20408;-76
2022/01/03 02:31:37;;;;;;;44.33;5.93;;;11.10;99.90;;;;;;5099968;27;20408;-76
2022/01/03 02:34:03;;;;;;;40.92;5.95;;;11.10;99.90;;;;;;5113444;27;20964;-76
2022/01/03 02:36:32;;;;;;;45.83;5.88;;;11.10;99.90;;;;;;5099833;28;20585;-75
2022/01/03 02:38:58;;;;;;;40.08;6.22;;;11.10;99.90;;;;;;5114376;27;20487;-76
2022/01/03 02:41:24;;;;;;;39.58;5.88;;;11.10;99.90;;;;;;5099948;27;20562;-75
2022/01/03 02:43:53;;;;;;;45.10;6.03;;;11.10;99.90;;;;;;5068647;28;20497;-75
2022/01/03 02:46:19;;;;;;;46.45;6.20;;;11.10;99.90;;;;;;5065090;28;20498;-75
2022/01/03 02:48:45;;;;;;;46.17;6.07;;;11.10;99.90;;;;;;5068541;28;20414;-76
2022/01/03 02:51:12;;;;;;;47.92;6.60;;;11.10;99.90;;;;;;5066564;28;21259;-76
2022/01/03 02:53:39;;;;;;;47.70;6.35;;;11.10;99.90;;;;;;5067642;28;20411;-74
2022/01/03 02:56:06;;;;;;;46.55;6.05;;;11.10;99.90;;;;;;5064694;28;20419;-73
2022/01/03 02:58:31;;;;;;;47.30;6.32;;;11.10;99.90;;;;;;5050830;28;20427;-74
2022/01/03 03:00:57;;;;;;;51.60;6.50;;;11.10;99.90;;;;;;5064602;28;20486;-76
2022/01/03 03:03:50;;;;;;;41.88;6.03;;;11.10;99.90;;;;;;5067488;28;20399;-76
2022/01/03 03:06:17;;;;;;;51.17;6.40;;;11.10;99.90;;;;;;5051834;28;20787;-76
2022/01/03 03:08:43;;;;;;;49.47;6.35;;;11.10;99.90;;;;;;5066240;28;20418;-76
2022/01/03 03:11:08;;;;;;;51.03;6.65;;;11.10;99.90;;;;;;5066257;28;20417;-76
2022/01/03 03:13:39;;;;;;;49.73;6.97;;;11.10;99.90;;;;;;5067257;28;20426;-77
2022/01/03 03:16:06;;;;;;;50.97;7.28;;;11.10;99.90;;;;;;5066129;28;20407;-77
2022/01/03 03:18:32;;;;;;;53.58;6.95;;;11.10;99.90;;;;;;5067284;28;20400;-76
2022/01/03 03:20:58;;;;;;;43.60;6.77;;;11.10;99.90;;;;;;5065054;28;20935;-77
2022/01/03 03:23:24;;;;;;;45.17;6.53;;;11.10;99.90;;;;;;5053630;28;20409;-76
2022/01/03 03:25:52;;;;;;;43.70;6.82;;;11.10;99.90;;;;;;5065855;28;20939;-77
2022/01/03 03:28:17;;;;;;;47.53;6.63;;;11.10;99.90;;;;;;5055944;28;20411;-76
2022/01/03 03:30:47;;;;;;;63.53;7.30;;;11.10;99.90;;;;;;5066301;28;20395;-77
2022/01/03 03:33:23;;;;;;;53.07;6.80;;;11.10;99.90;;;;;;5066592;28;20396;-76
2022/01/03 03:35:56;;;;;;;54.92;7.05;;;11.10;99.90;;;;;;5064827;28;21296;-76
2022/01/03 03:38:28;;;;;;;56.42;6.93;;;11.10;99.90;;;;;;5051002;28;20394;-75
2022/01/03 03:40:59;;;;;;;47.83;6.60;;;11.10;99.90;;;;;;5081859;28;20795;-76
2022/01/03 03:43:30;;;;;;;52.70;7.07;;;11.10;99.90;;;;;;5114979;27;20398;-76
2022/01/03 03:45:57;;;;;;;47.50;7.20;;;11.10;99.90;;;;;;5115306;27;20406;-75
2022/01/03 03:48:23;;;;;;;55.22;7.13;;;11.10;99.90;;;;;;5121232;27;20420;-76
2022/01/03 03:50:50;;;;;;;61.80;7.85;;;11.10;99.90;;;;;;5091266;28;20388;-74
2022/01/03 03:53:16;;;;;;;48.33;6.72;;;11.10;99.90;;;;;;5126290;27;20409;-76
2022/01/03 03:55:43;;;;;;;43.13;6.50;;;11.10;99.90;;;;;;5117705;27;20471;-75
2022/01/03 03:58:09;;;;;;;48.40;6.85;;;11.10;99.90;;;;;;5099401;28;20900;-75
2022/01/03 04:00:35;;;;;;;51.08;6.45;;;11.10;99.90;;;;;;5121670;27;20480;-76
2022/01/03 04:03:04;;;;;;;49.30;7.20;;;11.10;99.90;;;;;;5095359;28;20497;-76
2022/01/03 04:05:32;;;;;;;44.83;6.60;;;11.10;99.90;;;;;;5096337;28;20408;-75
2022/01/03 04:07:59;;;;;;;54.72;7.40;;;11.10;99.90;;;;;;5117773;27;20403;-75
2022/01/03 04:10:25;;;;;;;52.95;6.53;;;11.10;99.90;;;;;;5120234;28;20434;-75
2022/01/03 04:12:51;;;;;;;48.22;6.95;;;11.10;99.90;;;;;;5115312;28;20400;-75
2022/01/03 04:15:18;;;;;;;52.90;7.00;;;11.10;99.90;;;;;;5094984;28;20401;-75
2022/01/03 04:17:44;;;;;;;56.65;7.65;;;11.10;99.90;;;;;;5094318;28;20465;-75
2022/01/03 04:20:15;;;;;;;53.47;7.47;;;11.10;99.90;;;;;;5115044;28;20409;-76
2022/01/03 04:22:42;;;;;;;51.05;7.07;;;11.10;99.90;;;;;;5093048;28;22031;-75
2022/01/03 04:25:08;;;;;;;51.67;6.78;;;11.10;99.90;;;;;;5131167;27;20462;-75
2022/01/03 04:27:34;;;;;;;51.53;7.72;;;11.10;99.90;;;;;;5117911;28;20402;-77
2022/01/03 04:30:01;;;;;;;51.40;6.82;;;11.00;99.90;;;;;;5097873;28;20396;-76
2022/01/03 04:32:27;;;;;;;51.70;7.13;;;11.00;99.90;;;;;;5114850;28;20406;-76
2022/01/03 04:34:53;;;;;;;57.85;6.82;;;11.10;99.90;;;;;;5125220;28;20462;-76
2022/01/03 04:37:19;;;;;;;55.40;7.83;;;11.10;99.90;;;;;;5110934;28;21205;-77
2022/01/03 04:39:45;;;;;;;58.40;7.10;;;11.10;99.90;;;;;;5116260;28;20411;-75
2022/01/03 04:42:11;;;;;;;59.58;7.47;;;11.10;99.90;;;;;;5115052;28;20461;-76
2022/01/03 04:44:37;;;;;;;54.63;7.35;;;11.10;99.90;;;;;;5110767;28;20394;-77
2022/01/03 04:47:04;;;;;;;58.97;7.78;;;11.10;99.90;;;;;;5109084;28;20412;-78
2022/01/03 04:49:30;;;;;;;55.95;7.90;;;11.10;99.90;;;;;;5108465;28;20404;-75
2022/01/03 04:51:55;;;;;;;53.63;7.20;;;11.10;99.90;;;;;;5106885;28;20453;-74
2022/01/03 04:54:21;;;;;;;53.33;7.50;;;11.10;99.90;;;;;;5112995;28;20408;-76
2022/01/03 04:56:48;;;;;;;55.38;7.35;;;11.00;99.90;;;;;;5101266;28;20402;-76
2022/01/03 04:59:14;;;;;;;60.25;7.55;;;11.00;99.90;;;;;;5096940;28;20417;-76
2022/01/03 05:01:39;;;;;;;63.53;7.43;;;11.00;99.90;;;;;;5112198;28;20414;-75
2022/01/03 05:04:05;;;;;;;59.20;6.95;;;11.00;99.90;;;;;;5099190;28;20408;-76
2022/01/03 05:06:31;;;;;;;64.93;7.83;;;11.00;99.90;;;;;;5110967;28;20416;-74
2022/01/03 05:08:56;;;;;;;63.42;7.85;;;11.00;99.90;;;;;;5113160;27;20414;-74
2022/01/03 05:11:23;;;;;;;56.88;7.78;;;11.00;99.90;;;;;;5099840;27;20408;-75
2022/01/03 05:13:49;;;;;;;56.63;7.37;;;11.00;99.90;;;;;;5111025;27;20975;-75
2022/01/03 05:16:16;;;;;;;58.33;7.50;;;11.00;99.90;;;;;;5115813;27;20924;-75
2022/01/03 05:18:42;;;;;;;58.22;7.82;;;11.00;99.90;;;;;;5096749;27;20391;-75
2022/01/03 05:21:08;;;;;;;55.03;7.17;;;11.00;99.90;;;;;;5099840;28;20410;-74
2022/01/03 05:23:37;;;;;;;60.15;6.95;;;11.00;99.90;;;;;;5113775;27;20450;-75
2022/01/03 05:26:04;;;;;;;59.15;7.78;;;11.00;99.90;;;;;;5113334;27;20438;-74
2022/01/03 05:28:30;;;;;;;57.17;7.80;;;11.00;99.90;;;;;;5096092;28;20726;-74
2022/01/03 05:30:57;;;;;;;60.35;6.82;;;11.00;99.90;;;;;;5111849;27;21052;-75
2022/01/03 05:33:23;;;;;;;58.72;7.90;;;11.00;99.90;;;;;;5120033;27;20405;-76
2022/01/03 05:35:49;;;;;;;62.00;9.10;;;11.00;99.90;;;;;;5112778;27;20398;-76
2022/01/03 05:38:15;;;;;;;61.25;7.50;;;11.00;99.90;;;;;;5120981;27;20910;-75
2022/01/03 05:40:42;;;;;;;57.17;7.53;;;11.00;99.90;;;;;;5116039;27;20425;-74
2022/01/03 05:43:10;;;;;;;56.60;7.27;;;11.00;99.90;;;;;;5110225;27;20384;-75
2022/01/03 05:45:37;;;;;;;54.63;7.80;;;11.00;99.90;;;;;;5122747;27;20390;-73
2022/01/03 05:48:04;;;;;;;48.05;6.90;;;10.90;99.90;;;;;;5114522;27;20495;-75
2022/01/03 05:50:30;;;;;;;57.78;8.48;;;11.00;99.90;;;;;;5095603;27;20465;-76
2022/01/03 05:52:56;;;;;;;62.88;8.30;;;11.00;99.90;;;;;;5112345;27;20403;-74
2022/01/03 05:55:24;;;;;;;60.53;7.50;;;11.00;99.90;;;;;;5111490;27;20402;-74
2022/01/03 05:57:50;;;;;;;62.22;7.80;;;10.90;99.90;;;;;;5094973;27;20491;-78
2022/01/03 06:00:22;;;;;;;52.47;7.93;;;10.90;99.90;;;;;;5103240;27;20892;-75
2022/01/03 06:02:52;;;;;;;63.10;8.27;;;10.90;99.90;;;;;;5117777;27;20755;-75
2022/01/03 06:05:31;;;;;;;58.35;7.63;;;10.90;99.90;;;;;;5115042;27;20435;-76
2022/01/03 06:07:57;;;;;;;57.72;7.90;;;10.90;99.90;;;;;;5116831;27;20416;-77
2022/01/03 06:10:24;;;;;;;66.97;8.30;;;11.00;99.90;;;;;;5115112;27;20439;-77
2022/01/03 06:12:50;;;;;;;67.00;7.82;;;10.90;99.90;;;;;;5092654;28;20487;-76
2022/01/03 06:15:16;;;;;;;70.40;8.20;;;10.90;99.90;;;;;;5111761;27;20400;-77
2022/01/03 06:17:45;;;;;;;59.70;7.80;;;10.90;99.90;;;;;;5110450;27;20754;-76
2022/01/03 06:20:12;;;;;;;60.72;8.00;;;10.90;99.90;;;;;;5112251;27;20408;-77
2022/01/03 06:22:40;;;;;;;59.03;8.00;;;10.90;99.90;;;;;;5115111;27;20437;-77
2022/01/03 06:25:10;;;;;;;62.97;7.78;;;10.90;99.90;;;;;;5112586;27;20499;-76
2022/01/03 06:27:38;;;;;;;63.55;8.25;;;10.90;99.90;;;;;;5101152;27;22385;-76
2022/01/03 06:30:08;;;;;;;57.70;7.68;;;10.90;99.90;;;;;;5123066;27;20964;-77
2022/01/03 06:32:36;;;;;;;57.78;7.85;;;10.90;99.90;;;;;;5096565;27;20443;-76
2022/01/03 06:35:03;;;;;;;51.65;7.05;;;10.90;99.90;;;;;;5090690;28;20416;-77
2022/01/03 06:37:30;;;;;;;55.30;7.22;;;10.80;99.90;;;;;;5110496;27;20765;-74
2022/01/03 06:40:06;;;;;;;59.95;7.75;;;10.80;99.90;;;;;;5118331;27;20950;-76
2022/01/03 06:42:34;;;;;;;57.40;7.77;;;10.80;99.90;;;;;;5096349;27;20410;-75
2022/01/03 06:45:02;;;;;;;56.72;8.10;;;10.80;99.90;;;;;;5120149;27;20388;-77
2022/01/03 06:47:28;;;;;;;54.92;7.78;;;10.80;99.90;;;;;;5111284;27;21088;-77
2022/01/03 06:49:53;;;;;;;57.67;7.10;;;10.90;99.90;;;;;;5107417;27;20405;-77
2022/01/03 06:52:19;;;;;;;59.50;7.07;;;10.90;99.90;;;;;;5115069;27;20433;-77
2022/01/03 06:54:45;;;;;;;55.67;7.00;;;10.90;99.90;;;;;;5107607;27;20431;-77
2022/01/03 06:57:11;;;;;;;62.00;7.28;;;10.90;99.90;;;;;;5097634;27;20942;-77
2022/01/03 06:59:38;;;;;;;53.28;7.22;;;10.90;99.90;;;;;;5124812;27;20399;-77
2022/01/03 07:02:05;;;;;;;57.17;7.97;;;10.80;99.90;;;;;;5107999;27;20888;-77
2022/01/03 07:04:31;;;;;;;51.65;7.03;;;10.90;99.90;;;;;;5108151;28;20437;-77
2022/01/03 07:06:57;;;;;;;57.00;7.63;;;10.90;99.90;;;;;;5106154;28;20404;-77
2022/01/03 07:09:23;;;;;;;58.22;7.32;;;10.90;99.90;;;;;;5110018;27;21053;-77
2022/01/03 07:11:48;;;;;;;48.03;7.00;;;10.90;99.90;;;;;;5109501;27;20450;-78
2022/01/03 07:19:34;;;;;;;56.10;7.50;;;10.90;99.90;;;;;;5111465;27;20428;-78
2022/01/03 07:22:02;;;;;;;56.77;7.70;;;10.80;99.90;;;;;;5125500;27;20513;-78
2022/01/03 07:24:30;;;;;;;61.95;7.35;;;10.80;99.90;;;;;;5111963;27;20418;-77
2022/01/03 07:26:55;;;;;;;55.60;7.22;;;10.90;99.90;;;;;;5112578;27;20963;-77
2022/01/03 07:29:21;;;;;;;62.35;7.45;;;10.80;99.90;;;;;;5116892;27;20491;-77
2022/01/03 07:31:47;;;;;;;54.70;7.37;;;10.80;99.90;;;;;;5117182;27;20423;-77
2022/01/03 07:34:12;;;;;;;59.37;7.50;;;10.80;99.90;;;;;;5126110;27;20414;-77
2022/01/03 07:36:38;;;;;;;66.82;7.88;;;10.90;99.90;;;;;;5110986;27;20423;-77
2022/01/03 07:39:04;;;;;;;59.03;7.43;;;10.80;99.90;;;;;;5119562;27;20843;-77
2022/01/03 07:41:31;;;;;;;54.33;7.40;;;10.80;99.90;;;;;;5120497;27;20586;-78
2022/01/03 07:43:57;;;;;;;65.28;7.90;;;10.80;99.90;;;;;;5120712;27;20465;-76
2022/01/03 07:46:23;;;;;;;57.17;7.10;;;10.80;99.90;;;;;;5106306;28;20408;-77
2022/01/03 07:48:48;;;;;;;61.53;7.82;;;10.80;99.90;;;;;;5118353;27;20552;-78
2022/01/03 07:51:14;;;;;;;59.63;7.87;;;10.80;99.90;;;;;;5106979;27;20412;-77
2022/01/03 07:53:42;;;;;;;62.28;7.95;;;10.80;99.90;;;;;;5115754;27;20400;-76
2022/01/03 07:56:09;;;;;;;57.15;7.47;;;10.80;99.90;;;;;;5116684;27;20404;-75
2022/01/03 07:58:35;;;;;;;59.75;8.18;;;10.90;99.90;;;;;;5117910;27;20734;-76
2022/01/03 08:01:02;;;;;;;56.45;7.55;;;10.80;99.90;;;;;;5105577;28;21016;-78
2022/01/03 08:03:27;;;;;;;60.97;7.72;;;10.80;99.90;;;;;;5118685;27;20868;-76
2022/01/03 08:05:53;;;;;;;56.70;7.30;;;10.80;99.90;;;;;;5101635;28;20408;-75
2022/01/03 08:08:19;;;;;;;57.78;7.35;;;10.80;99.90;;;;;;5106819;28;20760;-76
2022/01/03 08:10:46;;;;;;;58.73;7.60;;;10.90;99.90;;;;;;5113644;28;20404;-76
2022/01/03 08:13:12;;;;;;;60.10;7.65;;;10.90;99.90;;;;;;5110016;28;20729;-75
2022/01/03 08:15:38;;;;;;;55.97;7.80;;;10.90;99.90;;;;;;5113658;28;20467;-76
2022/01/03 08:18:04;;;;;;;59.78;8.00;;;10.90;99.90;;;;;;5106945;28;20560;-76
2022/01/03 08:20:30;;;;;;;52.10;7.28;;;10.90;99.90;;;;;;5107830;28;21274;-77
2022/01/03 08:22:55;;;;;;;59.70;7.20;;;10.90;99.90;;;;;;5104380;28;20404;-75
2022/01/03 08:25:21;;;;;;;56.33;6.90;;;10.90;99.90;;;;;;5107188;28;20432;-75
2022/01/03 08:27:47;;;;;;;48.22;6.95;;;10.90;99.90;;;;;;5105266;28;20404;-76
2022/01/03 08:30:13;;;;;;;46.53;6.73;;;10.90;99.90;;;;;;5110836;28;20410;-77
2022/01/03 08:32:39;;;;;;;53.67;7.20;;;10.90;99.90;;;;;;5108283;27;20769;-77
2022/01/03 08:35:06;;;;;;;53.85;7.25;;;10.90;99.90;;;;;;5111363;28;20404;-77
2022/01/03 08:37:31;;;;;;;52.17;7.20;;;11.00;99.90;;;;;;5106090;28;20976;-76
2022/01/03 08:39:58;;;;;;;48.22;6.25;;;11.00;99.90;;;;;;5113140;28;20394;-73
2022/01/03 08:42:25;;;;;;;51.42;7.20;;;11.00;99.90;;;;;;5112452;27;20442;-75
2022/01/03 08:44:51;;;;;;;46.38;6.32;;;11.00;99.90;;;;;;5113873;27;20418;-77
2022/01/03 08:47:16;;;;;;;42.88;6.55;;;11.10;99.90;;;;;;5119691;27;20410;-76
2022/01/03 08:49:42;;;;;;;48.50;6.43;;;11.10;99.90;;;;;;5105723;28;20737;-75
2022/01/03 08:52:08;;;;;;;49.47;6.83;;;11.20;99.90;;;;;;5110765;27;20415;-75
2022/01/03 08:54:33;;;;;;;49.53;6.85;;;11.30;99.90;;;;;;5120891;27;20423;-74
2022/01/03 08:56:59;;;;;;;47.43;6.40;;;11.30;99.90;;;;;;5120452;27;20967;-76
2022/01/03 08:59:25;;;;;;;46.88;6.35;;;11.30;99.90;;;;;;5122040;27;20465;-76
2022/01/03 09:01:51;;;;;;;48.25;6.22;;;11.40;99.90;;;;;;5117686;27;20436;-77
2022/01/03 09:04:17;;;;;;;47.27;7.00;;;11.40;99.90;;;;;;5113605;27;20880;-78
2022/01/03 09:06:42;;;;;;;45.08;6.38;;;11.50;99.90;;;;;;5116151;27;20411;-78
2022/01/03 09:09:08;;;;;;;46.30;6.73;;;11.50;99.90;;;;;;5098122;27;20412;-79
2022/01/03 09:11:34;;;;;;;43.17;5.97;;;11.60;99.90;;;;;;5113008;27;20909;-80
2022/01/03 09:14:00;;;;;;;49.42;6.85;;;11.60;99.90;;;;;;5113352;27;20411;-79
2022/01/03 09:16:26;;;;;;;54.40;6.80;;;11.70;99.90;;;;;;5110444;27;20423;-79
2022/01/03 09:18:51;;;;;;;43.22;6.55;;;11.80;99.90;;;;;;5130264;27;20408;-78
2022/01/03 09:21:17;;;;;;;46.45;6.68;;;12.20;99.90;;;;;;5109567;27;20469;-79
2022/01/03 09:23:47;;;;;;;47.03;6.23;;;12.80;99.90;;;;;;5116140;27;20431;-78
2022/01/03 09:28:58;;;;;;;35.83;5.95;;;13.80;99.90;;;;;;5114853;27;20410;-84
2022/01/03 09:31:36;;;;;;;40.85;6.40;;;14.30;99.30;;;;;;5109347;27;20882;-71
2022/01/03 09:34:05;;;;;;;43.05;6.30;;;14.70;98.00;;;;;;5108778;27;20412;-80
2022/01/03 09:36:31;;;;;;;39.70;6.38;;;14.90;97.30;;;;;;5111221;27;20881;-76
2022/01/03 09:38:58;;;;;;;34.20;6.03;;;15.10;96.60;;;;;;5108758;27;20423;-74
2022/01/03 09:41:26;;;;;;;36.97;6.75;;;15.40;95.90;;;;;;5107253;27;20498;-78
2022/01/03 09:43:59;;;;;;;38.80;5.60;;;15.60;95.00;;;;;;5113996;27;20450;-77
2022/01/03 09:46:27;;;;;;;34.88;5.70;;;15.80;94.20;;;;;;5114754;27;20415;-77
2022/01/03 09:48:55;;;;;;;36.92;5.55;;;16.00;93.60;;;;;;5088990;27;20408;-76
2022/01/03 09:51:27;;;;;;;33.90;5.43;;;16.30;92.70;;;;;;5111246;27;20442;-78
2022/01/03 09:53:55;;;;;;;39.13;6.15;;;16.40;92.30;;;;;;5112785;27;20399;-78
2022/01/03 09:56:21;;;;;;;38.50;6.07;;;16.50;91.70;;;;;;5112239;27;21013;-76
2022/01/03 09:58:47;;;;;;;37.97;6.43;;;16.60;91.40;;;;;;5125680;27;20490;-76
2022/01/03 10:01:14;;;;;;;36.50;5.93;;;16.80;90.90;;;;;;5120891;27;20412;-77
2022/01/03 10:03:47;;;;;;;37.45;5.97;;;17.00;90.20;;;;;;5117686;27;20423;-77
2022/01/03 10:06:16;;;;;;;36.80;5.85;;;17.10;89.30;;;;;;5113906;27;20423;-78
2022/01/03 10:08:43;;;;;;;38.65;6.05;;;17.20;88.50;;;;;;5119179;27;20398;-77
2022/01/03 10:11:09;;;;;;;37.00;5.75;;;17.00;88.80;;;;;;5122268;27;20494;-75
2022/01/03 10:13:34;;;;;;;39.45;6.13;;;16.60;89.40;;;;;;5121592;27;20502;-73
2022/01/03 10:16:00;;;;;;;39.83;5.90;;;16.20;90.30;;;;;;5111449;27;20593;-77
2022/01/03 10:18:26;;;;;;;40.60;6.28;;;15.70;91.40;;;;;;5113744;27;20431;-77
2022/01/03 10:20:52;;;;;;;38.55;6.90;;;15.20;92.40;;;;;;5106754;27;20411;-76
2022/01/03 10:23:18;;;;;;;40.90;5.80;;;14.90;93.30;;;;;;5107783;27;20390;-76
2022/01/03 10:25:46;;;;;;;40.00;6.55;;;14.70;94.00;;;;;;5118989;27;20406;-76
2022/01/03 10:28:22;;;;;;;43.05;6.53;;;14.50;94.40;;;;;;5109605;27;20443;-75
2022/01/03 10:30:48;;;;;;;39.58;5.82;;;14.30;95.00;;;;;;5101588;27;20427;-80
2022/01/03 10:33:16;;;;;;;41.20;6.28;;;14.10;95.40;;;;;;5112922;27;20400;-76
2022/01/03 10:35:44;;;;;;;46.22;6.25;;;13.90;95.80;;;;;;5117231;27;20424;-75
2022/01/03 10:38:11;;;;;;;46.45;6.68;;;13.80;96.20;;;;;;5119923;27;20926;-76
2022/01/03 10:40:38;;;;;;;40.43;6.47;;;13.70;96.40;;;;;;5106265;27;20404;-74
2022/01/03 10:43:15;;;;;;;46.17;7.03;;;13.60;96.90;;;;;;5109241;27;20410;-75
2022/01/03 10:45:41;;;;;;;43.80;6.63;;;13.60;97.30;;;;;;5112683;27;20481;-75
2022/01/03 10:48:28;;;;;;;50.57;7.53;;;13.50;97.70;;;;;;5114084;27;20810;-77
2022/01/03 10:50:55;;;;;;;47.03;6.75;;;13.50;98.00;;;;;;5108997;27;20419;-76
2022/01/03 10:53:53;;;;;;;47.25;6.80;;;13.40;98.30;;;;;;5112032;27;20407;-76
2022/01/03 10:56:28;;;;;;;45.28;7.05;;;13.40;98.80;;;;;;5082500;27;20395;-82
2022/01/03 10:58:56;;;;;;;50.08;8.05;;;13.40;99.00;;;;;;5112290;27;20504;-76
2022/01/03 11:01:27;;;;;;;43.55;6.43;;;13.50;98.90;;;;;;5120341;27;20407;-76
2022/01/03 11:03:55;;;;;;;51.20;7.23;;;13.50;98.90;;;;;;5111520;27;20509;-77
2022/01/03 11:11:49;;;;;;;44.53;7.63;;;13.50;98.90;;;;;;5114282;27;20411;-76
2022/01/03 11:14:39;;;;;;;47.38;6.75;;;13.60;98.90;;;;;;5122169;27;20411;-74
2022/01/03 11:17:28;;;;;;;54.78;7.85;;;13.60;98.70;;;;;;5108032;28;20431;-76
2022/01/03 11:19:58;;;;;;;41.88;6.80;;;13.60;98.60;;;;;;5107852;28;21111;-75
2022/01/03 11:22:53;;;;;;;43.35;6.38;;;13.60;98.50;;;;;;5123249;27;20430;-76
2022/01/03 11:25:29;;;;;;;41.53;6.45;;;13.60;98.10;;;;;;5095645;28;20412;-75
2022/01/03 11:27:55;;;;;;;40.70;6.57;;;13.60;98.10;;;;;;5111560;27;20435;-76
2022/01/03 11:30:22;;;;;;;43.17;6.47;;;13.70;98.40;;;;;;5124459;27;20437;-75
2022/01/03 11:32:50;;;;;;;42.88;6.50;;;13.80;97.90;;;;;;5122414;27;20735;-74
2022/01/03 11:35:16;;;;;;;44.63;6.78;;;14.20;97.40;;;;;;5106106;28;20985;-75
2022/01/03 11:37:45;;;;;;;40.00;6.60;;;14.30;96.90;;;;;;5091528;28;20400;-74
2022/01/03 11:40:12;;;;;;;40.00;6.25;;;14.60;96.50;;;;;;5113521;27;20395;-78
2022/01/03 11:42:38;;;;;;;40.88;6.50;;;14.80;95.90;;;;;;5109066;27;20415;-75
2022/01/03 11:45:05;;;;;;;39.58;6.40;;;15.00;95.30;;;;;;5113533;27;20404;-78
2022/01/03 11:47:31;;;;;;;39.90;6.95;;;15.40;94.50;;;;;;5114162;27;20400;-78
2022/01/03 11:49:57;;;;;;;42.28;6.68;;;15.70;94.00;;;;;;5110331;27;20465;-77
2022/01/03 11:52:24;;;;;;;41.92;6.90;;;15.90;93.50;;;;;;5110275;27;20406;-77
2022/01/03 11:54:52;;;;;;;53.43;7.63;;;16.00;93.00;;;;;;5112527;27;20424;-76
2022/01/03 11:57:38;;;;;;;48.70;8.63;;;16.10;92.80;;;;;;5113474;27;20412;-75
2022/01/03 12:05:50;;;;;;;48.15;7.75;;;15.90;93.30;;;;;;5113857;27;20430;-77
2022/01/03 12:08:29;;;;;;;53.95;8.15;;;15.80;93.70;;;;;;5124286;27;20845;-75
2022/01/03 12:10:59;;;;;;;52.35;7.63;;;15.90;93.70;;;;;;5107816;27;22623;-76
2022/01/03 12:13:53;;;;;;;49.75;7.78;;;16.10;93.40;;;;;;5118292;28;20770;-76
2022/01/03 12:16:43;;;;;;;51.15;7.93;;;16.10;93.30;;;;;;5112546;28;20424;-76
2022/01/03 12:19:12;;;;;;;54.97;8.52;;;16.00;93.40;;;;;;5114453;27;20762;-74
2022/01/03 12:21:50;;;;;;;52.47;7.90;;;16.00;93.40;;;;;;5111418;27;20458;-78
2022/01/03 12:24:41;;;;;;;47.40;7.38;;;16.00;93.50;;;;;;5114223;27;20442;-78
2022/01/03 12:27:10;;;;;;;42.67;7.45;;;15.90;93.70;;;;;;5113643;27;20486;-77
2022/01/03 12:29:56;;;;;;;50.90;8.40;;;16.00;94.10;;;;;;5125952;27;20880;-77
2022/01/03 12:32:25;;;;;;;47.30;7.45;;;16.00;93.50;;;;;;5098193;27;20428;-77
2022/01/03 12:35:20;;;;;;;47.45;7.40;;;16.10;93.30;;;;;;5124999;27;20414;-75
2022/01/03 12:37:50;;;;;;;45.80;6.80;;;16.10;93.30;;;;;;5114399;27;20443;-78
2022/01/03 12:40:30;;;;;;;41.05;7.22;;;16.00;92.90;;;;;;5119401;27;21006;-77
2022/01/03 12:43:05;;;;;;;39.10;6.38;;;15.90;93.00;;;;;;5116485;27;20402;-78
2022/01/03 12:45:37;;;;;;;35.05;5.50;;;15.80;93.30;;;;;;5127778;27;20435;-75
2022/01/03 12:48:11;;;;;;;34.92;5.65;;;15.90;92.70;;;;;;5122348;27;20979;-78
2022/01/03 12:50:52;;;;;;;38.88;5.93;;;15.90;92.40;;;;;;5119417;27;20431;-77
2022/01/03 12:53:26;;;;;;;35.07;5.80;;;15.90;92.20;;;;;;5118296;27;20497;-78
2022/01/03 12:56:12;;;;;;;40.67;5.73;;;15.70;92.30;;;;;;5116919;27;20392;-76
2022/01/03 12:58:40;;;;;;;35.90;5.53;;;15.60;92.80;;;;;;5110363;28;20400;-74
2022/01/03 13:01:10;;;;;;;29.92;4.88;;;15.40;92.70;;;;;;5120987;27;20399;-76
2022/01/03 13:03:39;;;;;;;33.90;5.13;;;15.20;93.00;;;;;;5121107;27;20400;-75
2022/01/03 13:06:09;;;;;;;30.67;4.90;;;15.10;93.30;;;;;;5112750;27;20960;-75